createdAt,value
2023-01-30T00:04:24.809Z,5.37
2023-01-30T00:09:27.256Z,5.17
2023-01-30T00:14:29.962Z,5.70
2023-01-30T00:19:32.604Z,4.80
2023-01-30T00:24:35.127Z,5.10
2023-01-30T00:29:37.587Z,5.00
2023-01-30T00:34:40.197Z,5.53
2023-01-30T00:39:44.055Z,5.57
2023-01-30T00:45:05.387Z,5.47
2023-01-30T00:50:08.672Z,4.27
2023-01-30T00:55:11.585Z,4.87
2023-01-30T01:00:14.598Z,4.83
2023-01-30T01:05:17.337Z,4.47
2023-01-30T01:10:20.448Z,5.07
2023-01-30T01:15:24.684Z,5.40
2023-01-30T01:20:27.144Z,5.47
2023-01-30T01:25:30.041Z,4.20
2023-01-30T01:30:32.806Z,4.53
2023-01-30T01:35:35.229Z,5.63
2023-01-30T01:40:56.280Z,4.53
2023-01-30T01:46:18.256Z,5.10
2023-01-30T01:51:37.203Z,4.73
2023-01-30T01:56:43.959Z,5.43
2023-01-30T02:01:47.763Z,5.23
2023-01-30T02:06:50.384Z,4.83
2023-01-30T02:11:59.436Z,5.20
2023-01-30T02:17:02.224Z,4.90
2023-01-30T02:22:33.015Z,4.60
2023-01-30T02:27:59.645Z,5.07
2023-01-30T02:33:13.231Z,4.20
2023-01-30T02:38:30.933Z,5.00
2023-01-30T02:43:46.135Z,5.23
2023-01-30T02:48:59.299Z,5.50
2023-01-30T02:54:02.366Z,5.43
2023-01-30T02:59:08.649Z,5.40
2023-01-30T03:04:32.441Z,4.70
2023-01-30T03:10:14.896Z,5.43
2023-01-30T03:15:36.405Z,5.33
2023-01-30T03:20:41.124Z,5.27
2023-01-30T03:25:46.180Z,3.50
2023-01-30T03:30:49.166Z,4.77
2023-01-30T03:35:52.637Z,2.67
2023-01-30T03:40:55.144Z,3.10
2023-01-30T03:45:57.925Z,2.67
2023-01-30T03:51:00.603Z,3.13
2023-01-30T03:56:03.205Z,3.27
2023-01-30T04:01:08.298Z,4.30
2023-01-30T04:06:11.092Z,3.30
2023-01-30T04:11:13.564Z,3.83
2023-01-30T04:16:18.653Z,3.03
2023-01-30T04:21:50.115Z,2.83
2023-01-30T04:26:52.637Z,3.10
2023-01-30T04:31:55.206Z,3.93
2023-01-30T04:37:01.652Z,4.13
2023-01-30T04:42:05.217Z,3.67
2023-01-30T04:47:15.128Z,3.60
2023-01-30T04:52:17.645Z,3.67
2023-01-30T04:57:20.049Z,4.20
2023-01-30T05:02:23.781Z,3.87
2023-01-30T05:07:26.568Z,4.17
2023-01-30T05:12:29.209Z,3.73
2023-01-30T05:17:32.569Z,3.80
2023-01-30T05:22:35.137Z,4.07
2023-01-30T05:27:37.728Z,3.20
2023-01-30T05:32:40.187Z,4.03
2023-01-30T05:37:42.681Z,3.70
2023-01-30T05:42:45.236Z,3.20
2023-01-30T05:47:54.835Z,2.60
2023-01-30T05:52:58.979Z,3.27
2023-01-30T05:58:01.690Z,3.10
2023-01-30T06:03:04.276Z,3.50
2023-01-30T06:08:08.126Z,2.87
2023-01-30T06:13:11.270Z,1.97
2023-01-30T06:18:13.945Z,2.60
2023-01-30T06:23:16.849Z,3.40
2023-01-30T06:28:20.218Z,2.87
2023-01-30T06:33:22.705Z,3.43
2023-01-30T06:38:26.164Z,3.53
2023-01-30T06:43:28.739Z,3.67
2023-01-30T06:48:31.293Z,3.47
2023-01-30T06:53:33.981Z,3.40
2023-01-30T06:58:36.603Z,3.67
2023-01-30T07:03:42.358Z,3.37
2023-01-30T07:08:44.724Z,3.70
2023-01-30T07:13:47.417Z,3.60
2023-01-30T07:18:49.837Z,3.57
2023-01-30T07:23:52.793Z,3.20
2023-01-30T07:28:55.194Z,3.57
2023-01-30T07:33:57.629Z,3.20
2023-01-30T07:39:01.879Z,3.70
2023-01-30T07:44:04.492Z,3.37
2023-01-30T07:49:09.141Z,3.50
2023-01-30T07:54:11.790Z,3.27
2023-01-30T07:59:14.240Z,3.67
2023-01-30T08:04:16.764Z,3.57
2023-01-30T08:09:19.190Z,3.60
2023-01-30T08:14:21.987Z,3.60
2023-01-30T08:19:24.703Z,3.63
2023-01-30T08:24:27.439Z,3.27
2023-01-30T08:29:29.943Z,2.93
2023-01-30T08:34:32.948Z,3.40
2023-01-30T08:39:38.304Z,3.43
2023-01-30T08:44:40.915Z,3.83
2023-01-30T08:49:43.353Z,3.00
2023-01-30T08:54:45.873Z,3.57
2023-01-30T08:59:51.313Z,2.90
2023-01-30T09:04:53.888Z,2.87
2023-01-30T09:09:56.353Z,3.00
2023-01-30T09:15:00.671Z,2.67
2023-01-30T09:20:03.925Z,3.30
2023-01-30T09:25:07.061Z,3.37
2023-01-30T09:30:10.312Z,2.70
2023-01-30T09:35:12.831Z,2.90
2023-01-30T09:40:18.903Z,2.40
2023-01-30T09:45:49.366Z,2.00
2023-01-30T09:51:21.371Z,1.80
2023-01-30T09:56:24.197Z,1.77
2023-01-30T10:01:46.253Z,2.00
2023-01-30T10:07:10.377Z,1.90
2023-01-30T10:12:44.118Z,1.70
2023-01-30T10:18:13.467Z,1.50
2023-01-30T10:23:26.675Z,1.60
2023-01-30T10:28:38.685Z,1.87
2023-01-30T10:33:55.493Z,2.03
2023-01-30T10:39:01.644Z,1.83
2023-01-30T10:44:13.231Z,1.70
2023-01-30T10:50:11.114Z,1.60
2023-01-30T10:55:38.071Z,1.40
2023-01-30T11:00:51.116Z,1.20
2023-01-30T11:05:59.874Z,1.23
2023-01-30T11:11:21.784Z,1.03
2023-01-30T11:16:24.603Z,1.10
2023-01-30T11:21:42.333Z,1.57
2023-01-30T11:26:48.372Z,1.30
2023-01-30T11:31:52.319Z,1.50
2023-01-30T11:37:12.037Z,1.40
2023-01-30T11:42:14.569Z,1.67
2023-01-30T11:47:26.031Z,1.73
2023-01-30T11:52:35.125Z,2.07
2023-01-30T11:57:50.913Z,2.00
2023-01-30T12:02:56.737Z,2.00
2023-01-30T12:08:24.721Z,2.10
2023-01-30T12:13:47.295Z,2.40
2023-01-30T12:19:04.885Z,1.80
2023-01-30T12:24:13.500Z,2.03
2023-01-30T12:29:36.120Z,1.80
2023-01-30T12:34:38.775Z,2.30
2023-01-30T12:40:10.471Z,2.13
2023-01-30T12:45:21.516Z,1.83
2023-01-30T12:50:42.423Z,2.23
2023-01-30T12:55:59.432Z,1.97
2023-01-30T13:01:25.328Z,2.40
2023-01-30T13:06:39.812Z,2.00
2023-01-30T13:11:42.170Z,2.20
2023-01-30T13:17:14.682Z,2.00
2023-01-30T13:22:28.114Z,1.77
2023-01-30T13:27:35.818Z,1.90
2023-01-30T13:32:43.474Z,1.97
2023-01-30T13:37:49.047Z,1.93
2023-01-30T13:42:57.621Z,1.67
2023-01-30T13:48:15.147Z,1.70
2023-01-30T13:53:33.146Z,1.60
2023-01-30T13:58:44.596Z,1.73
2023-01-30T14:03:47.219Z,1.47
2023-01-30T14:08:55.103Z,1.43
2023-01-30T14:14:15.426Z,1.10
2023-01-30T14:19:33.347Z,1.10
2023-01-30T14:24:35.908Z,0.80
2023-01-30T14:29:38.229Z,1.10
2023-01-30T14:34:40.683Z,0.80
2023-01-30T14:39:53.480Z,1.10
2023-01-30T14:45:00.367Z,0.90
2023-01-30T14:50:03.327Z,0.90
2023-01-30T14:55:15.654Z,1.30
2023-01-30T15:00:21.076Z,1.30
2023-01-30T15:05:42.313Z,1.30
2023-01-30T15:10:54.135Z,1.50
2023-01-30T15:16:23.719Z,1.50
2023-01-30T15:21:56.931Z,1.57
2023-01-30T15:27:36.797Z,1.60
2023-01-30T15:32:39.406Z,1.63
2023-01-30T15:37:48.266Z,1.77
2023-01-30T15:43:02.869Z,1.87
2023-01-30T15:48:14.823Z,1.57
2023-01-30T15:53:17.970Z,1.87
2023-01-30T15:58:22.768Z,1.70
2023-01-30T16:03:32.193Z,1.90
2023-01-30T16:08:37.072Z,2.00
2023-01-30T16:13:39.843Z,1.87
2023-01-30T16:19:04.681Z,2.03
2023-01-30T16:24:27.912Z,2.03
2023-01-30T16:29:33.724Z,1.90
2023-01-30T16:34:39.913Z,1.87
2023-01-30T16:39:42.560Z,2.10
2023-01-30T16:44:45.057Z,2.20
2023-01-30T16:49:49.524Z,2.10
2023-01-30T16:55:02.638Z,2.20
2023-01-30T17:00:20.119Z,1.80
2023-01-30T17:05:34.348Z,1.60
2023-01-30T17:10:55.673Z,1.80
2023-01-30T17:16:16.759Z,1.50
2023-01-30T17:21:20.886Z,1.93
2023-01-30T17:26:23.860Z,1.93
2023-01-30T17:31:27.191Z,1.87
2023-01-30T17:36:31.105Z,1.77
2023-01-30T17:41:36.947Z,1.63
2023-01-30T17:46:41.221Z,1.80
2023-01-30T17:51:44.561Z,1.90
2023-01-30T17:56:50.347Z,1.77
2023-01-30T18:01:53.525Z,1.97
2023-01-30T18:07:09.697Z,1.77
2023-01-30T18:12:12.342Z,2.00
2023-01-30T18:17:14.861Z,2.37
2023-01-30T18:22:17.379Z,2.20
2023-01-30T18:27:19.893Z,2.20
2023-01-30T18:32:22.338Z,2.37
2023-01-30T18:37:25.495Z,2.20
2023-01-30T18:42:28.047Z,2.30
2023-01-30T18:47:30.751Z,2.27
2023-01-30T18:52:33.539Z,2.07
2023-01-30T18:57:36.166Z,2.40
2023-01-30T19:02:38.769Z,2.20
2023-01-30T19:07:41.404Z,2.03
2023-01-30T19:13:17.694Z,2.57
2023-01-30T19:18:20.419Z,2.47
2023-01-30T19:23:31.015Z,2.60
2023-01-30T19:28:33.699Z,2.40
2023-01-30T19:33:36.804Z,2.20
2023-01-30T19:38:40.269Z,2.63
2023-01-30T19:43:43.175Z,2.53
2023-01-30T19:48:47.271Z,2.20
2023-01-30T19:53:54.285Z,2.17
2023-01-30T19:58:58.764Z,2.37
2023-01-30T20:04:02.714Z,2.50
2023-01-30T20:09:09.693Z,2.30
2023-01-30T20:14:12.541Z,2.00
2023-01-30T20:19:16.969Z,2.40
2023-01-30T20:24:19.571Z,2.27
2023-01-30T20:29:22.020Z,2.60
2023-01-30T20:34:25.041Z,2.77
2023-01-30T20:39:27.595Z,2.77
2023-01-30T20:44:30.161Z,2.43
2023-01-30T20:49:33.113Z,2.60
2023-01-30T20:54:35.902Z,2.67
2023-01-30T20:59:38.917Z,2.23
2023-01-30T21:04:41.586Z,2.60
2023-01-30T21:09:44.125Z,3.03
2023-01-30T21:14:46.740Z,2.50
2023-01-30T21:19:49.191Z,2.63
2023-01-30T21:24:51.720Z,2.40
2023-01-30T21:29:54.281Z,2.50
2023-01-30T21:34:56.730Z,2.80
2023-01-30T21:40:17.826Z,2.37
2023-01-30T21:45:21.202Z,2.50
2023-01-30T21:50:24.088Z,2.37
2023-01-30T21:55:26.504Z,2.30
2023-01-30T22:00:28.984Z,2.90
2023-01-30T22:05:36.508Z,2.50
2023-01-30T22:10:39.282Z,2.30
2023-01-30T22:15:41.756Z,2.80
2023-01-30T22:20:44.407Z,2.80
2023-01-30T22:25:54.651Z,3.03
2023-01-30T22:31:08.566Z,2.70
2023-01-30T22:36:11.358Z,2.43
2023-01-30T22:41:18.469Z,2.40
2023-01-30T22:46:22.341Z,2.57
2023-01-30T22:51:37.085Z,2.67
2023-01-30T22:56:45.066Z,2.30
2023-01-30T23:01:50.778Z,2.73
2023-01-30T23:06:53.231Z,2.80
2023-01-30T23:12:15.770Z,2.40
2023-01-30T23:17:36.981Z,2.57
2023-01-30T23:22:39.455Z,2.47
2023-01-30T23:27:41.899Z,2.60
2023-01-30T23:32:44.304Z,2.67
2023-01-30T23:38:05.021Z,2.37
2023-01-30T23:43:07.646Z,2.40
2023-01-30T23:48:10.381Z,2.53
2023-01-30T23:53:12.774Z,2.93
2023-01-30T23:58:15.251Z,2.83
